Cache Junction, Utah
Current Conditions -  °F | °C
As of 7:05 AM on Sunday 25 Jan 2015 (Local Time) from KLGU Reporting Station
Haze Haze  
Wind Chill: 32°   Ceiling: 3200
Heat Index: 32°   Visibility: 5mi
Dew Point: 30°   Wind: 0mph
Humidity: 92%   Direction: NA
Pressure: 30.44"   Gusts: NA
Location:  41.84°N, 112.01°W
Report Text: KLGU 251405Z AUTO 00000KT 5SM BR OVC032 00/M01 A3044 RMK AO2 T00001011
Loading
Personal Weather Stations






























Interactive Weather Map New forecast layout! Learn more

10-Day Weather Forecast

Advertisements
Track Severe Weather on mobile